Time;durP1;ratioP1;P1;durP2;ratioP2;P2;SDS_P1;SDS_P2;PMS_P1;PMS_P2;Temp;Humidity;BMP_temperature;BMP_pressure;BME280_temperature;BME280_humidity;BME280_pressure;Samples;Min_cycle;Max_cycle;Signal;HPM_P1;HPM_P2
2023/06/04 00:01:28;;;;;;;5.63;3.17;;;;;;;8.36;69.63;99808.41;6083661;23;20112;-88
2023/06/04 00:03:54;;;;;;;9.25;3.53;;;;;;;8.11;68.86;99779.47;6156498;23;20076;-87
2023/06/04 00:06:19;;;;;;;6.78;3.05;;;;;;;8.35;69.16;99822.31;6082035;23;20025;-88
2023/06/04 00:08:45;;;;;;;5.88;3.45;;;;;;;8.10;68.92;99783.28;6155935;23;20076;-86
2023/06/04 00:11:11;;;;;;;7.57;2.88;;;;;;;8.39;69.10;99831.56;6155329;23;20021;-87
2023/06/04 00:13:37;;;;;;;7.05;3.35;;;;;;;8.05;69.36;99786.06;6104781;23;20060;-85
2023/06/04 00:16:04;;;;;;;7.10;3.20;;;;;;;8.25;69.04;99809.59;6081174;23;20025;-86
2023/06/04 00:18:30;;;;;;;12.23;3.60;;;;;;;8.26;69.00;99811.22;6155574;23;20446;-91
2023/06/04 00:20:59;;;;;;;6.40;3.30;;;;;;;8.33;69.37;99827.22;6129353;23;20037;-88
2023/06/04 00:23:25;;;;;;;7.88;3.08;;;;;;;8.30;69.54;99830.50;6081027;23;20121;-87
2023/06/04 00:25:51;;;;;;;5.50;2.88;;;;;;;8.31;69.43;99837.59;6085814;23;20017;-88
2023/06/04 00:28:17;;;;;;;10.38;3.10;;;;;;;8.19;69.00;99816.19;6081073;23;20088;-89
2023/06/04 00:30:43;;;;;;;8.57;2.70;;;;;;;8.14;69.09;99816.19;6155456;23;20044;-85
2023/06/04 00:33:09;;;;;;;12.45;3.15;;;;;;;8.02;69.02;99789.34;6155498;23;20041;-85
2023/06/04 00:35:35;;;;;;;7.93;3.05;;;;;;;8.37;69.06;99839.16;6155277;23;20390;-86
2023/06/04 00:38:00;;;;;;;7.38;3.00;;;;;;;8.33;69.00;99843.56;6105411;23;20032;-88
2023/06/04 00:40:26;;;;;;;6.60;2.90;;;;;;;8.24;68.81;99844.19;6081753;23;20403;-86
2023/06/04 00:42:52;;;;;;;6.63;2.97;;;;;;;8.26;69.22;99834.91;6081639;23;20018;-90
2023/06/04 00:45:20;;;;;;;5.75;3.08;;;;;;;8.31;69.20;99848.47;6081768;23;20017;-88
2023/06/04 00:47:45;;;;;;;5.15;3.30;;;;;;;8.20;69.51;99837.66;6080789;23;20470;-88
2023/06/04 00:50:12;;;;;;;6.90;3.03;;;;;;;8.19;69.37;99827.88;6156139;23;20017;-86
2023/06/04 00:52:38;;;;;;;4.85;3.20;;;;;;;8.07;69.38;99824.69;6082069;23;20436;-90
2023/06/04 00:55:04;;;;;;;5.68;2.80;;;;;;;8.26;69.81;99852.06;6155204;23;20056;-87
2023/06/04 00:57:30;;;;;;;6.07;3.03;;;;;;;8.23;69.63;99858.06;6081143;23;20021;-86
2023/06/04 00:59:57;;;;;;;7.80;3.35;;;;;;;8.07;70.17;99848.38;6081389;23;20079;-87
2023/06/04 01:03:05;;;;;;;4.78;2.78;;;;;;;8.06;70.06;99838.59;6129318;23;20024;-87
2023/06/04 01:06:05;;;;;;;7.70;2.70;;;;;;;8.10;69.91;99858.72;6129631;23;20351;-89
2023/06/04 01:08:32;;;;;;;11.13;3.17;;;;;;;7.89;69.75;99828.91;6129200;23;20075;-87
2023/06/04 01:11:03;;;;;;;5.97;2.75;;;;;;;8.08;69.67;99850.84;6129320;23;20467;-86
2023/06/04 01:13:29;;;;;;;7.07;2.92;;;;;;;8.24;70.08;99856.97;6129353;23;20021;-86
2023/06/04 01:15:55;;;;;;;6.50;3.33;;;;;;;7.80;69.55;99791.69;6105194;23;20072;-86
2023/06/04 01:18:36;;;;;;;6.75;3.03;;;;;;;8.04;70.02;99838.88;6130115;23;20021;-85
2023/06/04 01:21:09;;;;;;;5.43;3.00;;;;;;;8.14;69.82;99876.91;6156452;23;20096;-85
2023/06/04 01:23:58;;;;;;;6.75;2.72;;;;;;;8.00;69.24;99873.22;6082169;23;20017;-84
2023/06/04 01:26:29;;;;;;;6.10;2.53;;;;;;;7.98;69.43;99873.50;6129432;23;20052;-88
2023/06/04 01:28:57;;;;;;;5.38;2.70;;;;;;;8.13;69.63;99874.50;6129223;23;20126;-87
2023/06/04 01:31:24;;;;;;;10.40;2.80;;;;;;;8.06;68.94;99871.28;6129716;23;20028;-87
2023/06/04 01:33:53;;;;;;;;;;;;;;;8.09;69.30;99876.16;6080811;23;20040;-84
2023/06/04 01:36:20;;;;;;;11.90;2.80;;;;;;;8.09;69.20;99885.13;6080853;23;20346;-86
2023/06/04 01:38:46;;;;;;;7.88;2.67;;;;;;;8.08;69.10;99888.97;6080492;23;20014;-85
2023/06/04 01:41:13;;;;;;;7.27;2.60;;;;;;;8.07;69.28;99881.88;6155243;23;20100;-88
2023/06/04 01:43:44;;;;;;;6.15;2.90;;;;;;;7.93;69.37;99862.63;6154950;23;20656;-87
2023/06/04 01:46:10;;;;;;;7.22;2.58;;;;;;;7.80;69.64;99835.22;6153489;23;20083;-88
2023/06/04 01:48:51;;;;;;;7.88;2.30;;;;;;;7.63;68.50;99822.00;6047330;23;20464;-86
2023/06/04 01:51:17;;;;;;;6.70;2.38;;;;;;;7.98;69.37;99878.16;6096778;23;20022;-86
2023/06/04 01:53:52;;;;;;;4.10;2.30;;;;;;;8.15;69.40;99908.53;6098950;23;20576;-87
2023/06/04 01:56:21;;;;;;;5.45;2.58;;;;;;;8.16;68.66;99907.41;6125376;23;20352;-85
2023/06/04 01:58:53;;;;;;;7.18;2.78;;;;;;;8.20;69.28;99907.66;6076678;23;20384;-89
2023/06/04 02:02:13;;;;;;;9.27;3.00;;;;;;;8.20;69.38;99911.19;6076559;23;20018;-87
2023/06/04 02:05:29;;;;;;;3.35;2.33;;;;;;;8.22;69.76;99913.66;6075662;23;20109;-86
2023/06/04 02:07:57;;;;;;;3.53;2.22;;;;;;;7.77;69.61;99842.06;6099161;23;20014;-86
2023/06/04 02:10:40;;;;;;;4.78;2.60;;;;;;;7.80;69.65;99846.94;6078317;23;20022;-86
2023/06/04 02:13:06;;;;;;;4.65;2.70;;;;;;;7.99;69.39;99883.28;6074639;23;20036;-85
2023/06/04 02:15:32;;;;;;;9.27;2.58;;;;;;;8.15;69.20;99889.47;6076071;23;20014;-89
2023/06/04 02:18:12;;;;;;;6.45;2.65;;;;;;;8.30;68.72;99921.22;6099402;23;20021;-85
2023/06/04 02:20:59;;;;;;;4.43;2.42;;;;;;;8.31;68.89;99919.31;6083732;23;20045;-86
2023/06/04 02:23:26;;;;;;;5.15;2.30;;;;;;;8.37;68.39;99920.91;6052277;23;20104;-86
2023/06/04 02:26:02;;;;;;;5.13;2.22;;;;;;;8.21;68.93;99895.66;6076689;23;20037;-89
2023/06/04 02:28:31;;;;;;;4.72;2.63;;;;;;;8.19;68.75;99884.25;6125826;23;20025;-87
2023/06/04 02:31:00;;;;;;;4.55;2.38;;;;;;;8.43;68.38;99931.50;6075931;23;20025;-84
2023/06/04 02:33:26;;;;;;;3.35;2.30;;;;;;;8.53;68.61;99938.78;6126025;23;20014;-87
2023/06/04 02:35:52;;;;;;;4.40;2.33;;;;;;;8.47;68.43;99934.47;6077599;23;20029;-89
2023/06/04 02:38:18;;;;;;;14.30;2.40;;;;;;;8.58;67.55;99949.66;6126084;23;20014;-86
2023/06/04 02:40:44;;;;;;;7.03;2.53;;;;;;;8.52;68.23;99922.75;6052766;23;20100;-85
2023/06/04 02:43:11;;;;;;;5.25;2.40;;;;;;;8.67;68.06;99960.75;6051404;23;20022;-85
2023/06/04 02:45:37;;;;;;;10.20;2.17;;;;;;;8.72;67.60;99963.47;6124952;23;20069;-86
2023/06/04 02:48:03;;;;;;;5.43;2.40;;;;;;;8.52;68.17;99939.09;6051088;23;20026;-85
2023/06/04 02:50:29;;;;;;;5.10;2.50;;;;;;;8.73;68.17;99956.91;6051562;23;20440;-86
2023/06/04 02:52:55;;;;;;;7.45;2.90;;;;;;;8.66;67.81;99957.22;6099038;23;20049;-85
2023/06/04 02:55:21;;;;;;;5.47;2.60;;;;;;;8.68;67.88;99943.31;6099855;23;20018;-85
2023/06/04 02:57:47;;;;;;;4.47;2.40;;;;;;;8.66;67.76;99959.94;6126531;23;20096;-87
2023/06/04 03:00:14;;;;;;;4.10;2.40;;;;;;;8.84;68.35;99976.72;6099936;23;20084;-84
2023/06/04 03:02:48;;;;;;;12.45;2.42;;;;;;;8.93;68.19;99977.72;6075008;23;20487;-86
2023/06/04 03:05:17;;;;;;;7.47;2.47;;;;;;;8.94;68.58;99982.91;6099083;23;20108;-84
2023/06/04 03:07:45;;;;;;;4.65;2.00;;;;;;;8.86;68.21;99953.53;6074853;23;20018;-85
2023/06/04 03:10:13;;;;;;;10.30;2.58;;;;;;;9.01;67.76;99974.41;6053244;23;20017;-85
2023/06/04 03:12:39;;;;;;;8.23;2.55;;;;;;;8.97;67.80;99959.69;6102883;23;20022;-84
2023/06/04 03:15:05;;;;;;;5.57;2.45;;;;;;;9.15;67.54;99999.09;6054476;23;20029;-86
2023/06/04 03:17:32;;;;;;;5.88;2.38;;;;;;;9.08;66.80;99974.06;6129249;23;20021;-88
2023/06/04 03:19:58;;;;;;;5.85;2.60;;;;;;;9.26;67.33;99992.44;6079161;23;20021;-85
2023/06/04 03:22:25;;;;;;;8.32;2.22;;;;;;;9.06;67.99;99960.69;6055171;23;20497;-85
2023/06/04 03:24:55;;;;;;;5.57;2.50;;;;;;;9.44;67.69;100015.47;6103381;23;20038;-85
2023/06/04 03:27:26;;;;;;;6.38;2.25;;;;;;;9.53;67.70;100019.16;6102998;23;20022;-85
2023/06/04 03:30:03;;;;;;;5.50;2.10;;;;;;;9.25;66.79;99968.19;6128511;23;20018;-90
2023/06/04 03:32:37;;;;;;;4.35;2.28;;;;;;;9.46;67.15;100007.78;6107187;23;20088;-85
2023/06/04 03:35:03;;;;;;;5.55;2.20;;;;;;;9.52;67.59;100012.09;6104017;23;20020;-90
2023/06/04 03:37:32;;;;;;;4.50;1.80;;;;;;;9.55;66.76;100032.53;6080625;23;20021;-84
2023/06/04 03:40:31;;;;;;;5.75;2.20;;;;;;;9.28;67.07;99987.50;6102697;23;20364;-83
2023/06/04 03:45:52;;;;;;;6.95;2.42;;;;;;;9.60;66.42;100027.84;5987727;23;20019;-85
2023/06/04 03:48:18;;;;;;;4.53;2.20;;;;;;;9.68;66.25;100028.31;5985875;23;20024;-91
2023/06/04 03:50:45;;;;;;;6.57;2.03;;;;;;;9.83;67.05;100041.78;5989937;23;20111;-90
2023/06/04 03:53:13;;;;;;;8.57;2.08;;;;;;;9.75;66.49;100015.13;5968212;23;20016;-84
2023/06/04 03:55:40;;;;;;;3.97;2.35;;;;;;;9.88;65.53;100037.09;5966584;23;20110;-88
2023/06/04 03:58:09;;;;;;;5.68;2.10;;;;;;;9.77;65.28;100013.75;5963894;23;20119;-85
2023/06/04 04:00:37;;;;;;;6.00;2.30;;;;;;;9.87;65.75;100024.56;5963401;23;20110;-85
2023/06/04 04:03:04;;;;;;;3.85;1.88;;;;;;;10.02;65.01;100036.41;5987486;23;20058;-86
2023/06/04 04:05:31;;;;;;;3.08;1.80;;;;;;;9.95;64.72;100036.75;5941573;23;20019;-85
2023/06/04 04:07:57;;;;;;;5.80;2.20;;;;;;;10.02;64.16;100050.06;6010021;23;20613;-84
2023/06/04 04:10:28;;;;;;;7.85;2.05;;;;;;;9.83;65.05;100017.22;5963482;23;20561;-87
2023/06/04 04:12:54;;;;;;;2.58;1.80;;;;;;;9.96;64.31;100040.28;6012854;23;20043;-85
2023/06/04 04:15:21;;;;;;;2.95;1.88;;;;;;;9.98;64.59;100036.16;5941668;23;20027;-85
2023/06/04 04:17:49;;;;;;;4.93;1.98;;;;;;;10.12;64.97;100045.28;5965859;23;20015;-85
2023/06/04 04:20:16;;;;;;;4.75;2.08;;;;;;;10.18;64.73;100035.09;6015202;23;20538;-84
2023/06/04 04:22:48;;;;;;;4.85;1.90;;;;;;;10.34;64.64;100039.31;6101869;23;20022;-86
2023/06/04 04:25:15;;;;;;;5.78;2.17;;;;;;;10.40;65.00;100053.72;6126995;23;20024;-85
2023/06/04 04:27:41;;;;;;;3.78;2.03;;;;;;;10.56;66.01;100059.78;6076931;23;20017;-86
2023/06/04 04:30:13;;;;;;;6.90;1.98;;;;;;;10.56;64.56;100057.88;6079564;23;20468;-87
2023/06/04 04:32:48;;;;;;;6.97;2.20;;;;;;;10.61;64.45;100053.44;6101356;23;20021;-84
2023/06/04 04:35:18;;;;;;;6.18;2.20;;;;;;;10.72;64.36;100060.38;6079575;23;20021;-88
2023/06/04 04:37:45;;;;;;;8.43;1.83;;;;;;;10.77;63.31;100052.91;6077479;23;20077;-86
2023/06/04 04:40:14;;;;;;;4.60;2.03;;;;;;;10.84;64.04;100058.03;6102611;23;20018;-85
2023/06/04 04:42:43;;;;;;;3.97;1.80;;;;;;;10.88;62.57;100060.97;6080158;23;20134;-84
2023/06/04 04:45:13;;;;;;;4.20;1.95;;;;;;;10.81;62.02;100072.28;6078120;23;20471;-91
2023/06/04 04:47:41;;;;;;;4.63;1.80;;;;;;;10.89;61.91;100070.78;6066557;23;20093;-86
2023/06/04 04:50:10;;;;;;;7.50;2.08;;;;;;;10.89;62.47;100059.84;6053288;23;20073;-85
2023/06/04 04:52:36;;;;;;;5.22;1.70;;;;;;;10.81;62.64;100037.53;6101486;23;20021;-84
2023/06/04 04:55:02;;;;;;;3.63;2.10;;;;;;;10.94;61.60;100068.00;6125831;23;20021;-84
2023/06/04 04:57:31;;;;;;;8.45;1.85;;;;;;;10.93;60.73;100075.41;6077073;23;20018;-85
2023/06/04 04:59:58;;;;;;;2.10;1.67;;;;;;;10.93;61.37;100063.66;6100490;23;20017;-87
2023/06/04 05:02:25;;;;;;;7.05;1.50;;;;;;;10.96;61.91;100065.75;6126838;23;20028;-87
2023/06/04 05:04:53;;;;;;;2.08;1.60;;;;;;;11.04;61.59;100068.66;6077909;23;20545;-87
2023/06/04 05:07:24;;;;;;;3.85;1.90;;;;;;;10.98;60.11;100047.13;6056429;23;20069;-85
2023/06/04 05:10:00;;;;;;;4.50;1.60;;;;;;;10.77;60.15;100005.63;6100911;23;20096;-84
2023/06/04 05:12:31;;;;;;;3.38;1.60;;;;;;;11.22;59.59;100077.94;6103903;23;20022;-87
2023/06/04 05:14:58;;;;;;;2.65;1.58;;;;;;;11.26;60.47;100087.19;6054095;23;20028;-87
2023/06/04 05:17:29;;;;;;;5.90;1.90;;;;;;;11.17;61.19;100055.31;6077482;23;20077;-86
2023/06/04 05:20:11;;;;;;;6.45;1.52;;;;;;;10.98;59.70;100009.63;6052366;23;20022;-90
2023/06/04 05:23:13;;;;;;;4.57;1.73;;;;;;;11.42;58.95;100078.72;6106706;23;20388;-87
2023/06/04 05:25:42;;;;;;;3.30;1.70;;;;;;;11.59;58.91;100076.25;6076940;23;20018;-88
2023/06/04 05:28:53;;;;;;;6.38;1.90;;;;;;;11.81;60.40;100086.50;6103963;23;20022;-84
2023/06/04 05:31:20;;;;;;;2.92;1.50;;;;;;;11.84;58.80;100077.72;6076541;23;20405;-90
2023/06/04 05:34:06;;;;;;;3.47;2.00;;;;;;;11.92;59.19;100055.13;6076695;23;20018;-85
2023/06/04 05:40:05;;;;;;;;;;;;;;;12.02;56.38;100081.50;5959830;24;20052;-86
2023/06/04 05:42:41;;;;;;;2.85;1.50;;;;;;;12.04;56.29;100086.66;5875029;24;20328;-87
2023/06/04 05:45:40;;;;;;;6.43;1.60;;;;;;;11.70;55.97;100025.63;5875414;24;20460;-87
2023/06/04 05:48:36;;;;;;;3.05;2.20;;;;;;;11.73;56.14;100032.44;5921125;24;20057;-87
2023/06/04 05:51:13;;;;;;;6.90;2.10;;;;;;;12.04;55.80;100079.25;5821700;24;20049;-85
2023/06/04 05:53:49;;;;;;;6.18;2.50;;;;;;;11.95;55.67;100068.22;5844530;24;20022;-87
2023/06/04 05:56:16;;;;;;;9.00;1.70;;;;;;;12.22;54.99;100097.53;5846757;24;20030;-84
2023/06/04 05:58:43;;;;;;;4.43;1.50;;;;;;;12.37;54.37;100090.13;5823344;24;20029;-89
2023/06/04 06:01:11;;;;;;;2.15;1.60;;;;;;;12.61;56.04;100093.44;5822906;24;20268;-86
2023/06/04 06:03:37;;;;;;;4.75;1.70;;;;;;;12.69;55.38;100084.50;5821746;24;20099;-84
2023/06/04 06:06:05;;;;;;;1.95;1.50;;;;;;;12.62;53.43;100099.75;5842565;24;20046;-84
2023/06/04 06:08:31;;;;;;;6.25;1.50;;;;;;;12.49;56.49;100084.94;5843354;24;20539;-84
2023/06/04 06:10:58;;;;;;;3.65;1.65;;;;;;;12.44;55.10;100094.06;5844034;24;20019;-85
2023/06/04 06:13:24;;;;;;;4.30;1.60;;;;;;;12.54;55.17;100104.00;5821746;24;20043;-92
2023/06/04 06:15:52;;;;;;;5.70;1.80;;;;;;;12.54;55.42;100078.53;5862295;24;20041;-83
2023/06/04 06:18:19;;;;;;;11.57;2.50;;;;;;;12.55;53.54;100071.91;5967241;23;20086;-86
2023/06/04 06:20:54;;;;;;;5.60;2.90;;;;;;;12.91;53.67;100102.94;5940453;23;20022;-88
2023/06/04 06:23:27;;;;;;;10.55;3.17;;;;;;;12.74;52.73;100064.34;5961170;23;20050;-86
2023/06/04 06:25:52;;;;;;;2.88;1.90;;;;;;;12.98;52.08;100093.44;5962162;23;20065;-89
2023/06/04 06:28:25;;;;;;;8.45;2.00;;;;;;;13.15;52.74;100110.09;6058480;23;20045;-85
2023/06/04 06:30:53;;;;;;;4.40;1.70;;;;;;;13.01;50.80;100060.69;6083394;23;20021;-87
2023/06/04 06:33:28;;;;;;;6.32;1.60;;;;;;;13.21;51.77;100075.91;6156585;23;20103;-86
2023/06/04 06:35:54;;;;;;;4.22;2.05;;;;;;;13.25;51.65;100092.59;6156625;23;20017;-87
2023/06/04 06:38:20;;;;;;;7.75;1.80;;;;;;;13.42;49.40;100091.91;6106297;23;20048;-90
2023/06/04 06:40:52;;;;;;;6.82;2.20;;;;;;;13.49;49.06;100095.81;6133530;23;20034;-86
2023/06/04 06:43:18;;;;;;;3.55;1.92;;;;;;;13.61;49.04;100100.75;6153397;23;20045;-90
2023/06/04 06:45:44;;;;;;;4.85;2.00;;;;;;;13.69;49.93;100110.97;6156271;23;20017;-91
2023/06/04 06:48:10;;;;;;;4.63;1.97;;;;;;;13.61;49.41;100079.56;6078729;23;20080;-87
2023/06/04 06:50:36;;;;;;;4.55;1.40;;;;;;;13.51;47.79;100073.50;6099990;23;20564;-87
2023/06/04 06:53:03;;;;;;;3.13;1.92;;;;;;;13.71;48.22;100086.75;6126898;23;20020;-87
2023/06/04 06:55:29;;;;;;;5.45;2.22;;;;;;;13.91;49.83;100093.63;6127097;23;20024;-92
2023/06/04 06:57:54;;;;;;;7.45;1.80;;;;;;;13.94;49.46;100093.00;6099165;23;20017;-88
2023/06/04 07:00:21;;;;;;;5.53;2.00;;;;;;;14.01;50.31;100085.13;6100802;23;20014;-87
2023/06/04 07:02:47;;;;;;;5.87;1.90;;;;;;;13.91;47.86;100099.13;6127883;23;20060;-85
2023/06/04 07:05:16;;;;;;;4.78;1.92;;;;;;;13.49;47.85;100070.28;6128099;23;20065;-86
2023/06/04 07:07:43;;;;;;;2.08;1.52;;;;;;;13.72;48.33;100110.34;6130271;23;20013;-83
2023/06/04 07:10:18;;;;;;;2.63;1.60;;;;;;;13.84;47.96;100096.00;6112210;23;20100;-83
2023/06/04 07:12:50;;;;;;;4.63;1.65;;;;;;;14.09;47.08;100080.78;6108911;23;20412;-88
2023/06/04 07:15:34;;;;;;;4.07;1.88;;;;;;;14.42;48.36;100102.41;6129262;23;20017;-83
2023/06/04 07:18:00;;;;;;;6.35;1.50;;;;;;;14.66;45.39;100100.03;6122275;23;20021;-85
2023/06/04 07:20:26;;;;;;;3.35;2.17;;;;;;;14.68;46.19;100092.28;6097126;23;20022;-86
2023/06/04 07:22:52;;;;;;;5.60;2.00;;;;;;;14.47;45.99;100078.31;6122600;23;20025;-85
2023/06/04 07:25:19;;;;;;;4.65;1.90;;;;;;;14.38;46.33;100098.66;6096497;23;20026;-86
2023/06/04 07:27:57;;;;;;;6.53;2.00;;;;;;;14.06;47.21;100089.66;6121861;23;20046;-86
2023/06/04 07:33:43;;;;;;;2.60;1.85;;;;;;;14.30;45.19;100114.00;6122455;23;20018;-82
2023/06/04 07:36:18;;;;;;;7.97;2.30;;;;;;;14.26;45.80;100086.31;6096466;23;20017;-86
2023/06/04 07:38:44;;;;;;;5.05;2.20;;;;;;;14.31;44.73;100116.44;6121631;23;20026;-84
2023/06/04 07:41:10;;;;;;;2.00;1.43;;;;;;;14.06;43.74;100097.91;6120852;23;20018;-85
2023/06/04 07:43:37;;;;;;;2.38;1.77;;;;;;;13.93;44.51;100094.13;6120423;23;20735;-86
2023/06/04 07:46:04;;;;;;;6.25;2.13;;;;;;;14.22;45.95;100123.03;6123906;23;20022;-87
2023/06/04 07:48:32;;;;;;;5.97;2.33;;;;;;;14.39;47.15;100095.59;6121390;23;20037;-88
2023/06/04 07:50:59;;;;;;;5.70;2.08;;;;;;;14.49;45.79;100088.97;6078616;23;20079;-90
2023/06/04 07:53:26;;;;;;;1.95;1.55;;;;;;;14.55;44.45;100088.53;6080386;23;20081;-90
2023/06/04 07:55:52;;;;;;;4.63;2.03;;;;;;;14.71;45.09;100102.66;6153967;23;20021;-85
2023/06/04 07:58:19;;;;;;;5.32;1.48;;;;;;;14.67;43.83;100087.94;6154259;23;20018;-88
2023/06/04 08:00:47;;;;;;;5.07;1.70;;;;;;;14.60;42.59;100100.53;6158141;23;20028;-86
2023/06/04 08:03:15;;;;;;;8.95;2.20;;;;;;;14.60;44.06;100114.28;6156843;23;20021;-89
2023/06/04 08:05:42;;;;;;;9.13;1.80;;;;;;;14.63;43.72;100100.69;6130348;23;20017;-86
2023/06/04 08:08:08;;;;;;;6.82;1.98;;;;;;;14.98;45.13;100090.53;6154479;23;20080;-83
2023/06/04 08:10:34;;;;;;;14.68;2.20;;;;;;;15.08;44.67;100083.91;6153659;23;20017;-82
2023/06/04 08:13:00;;;;;;;9.82;2.08;;;;;;;14.90;41.09;100082.25;6152776;23;20040;-85
2023/06/04 08:15:26;;;;;;;3.83;1.77;;;;;;;14.76;43.44;100074.97;6153650;23;20095;-88
2023/06/04 08:18:12;;;;;;;7.80;2.10;;;;;;;14.83;42.86;100110.28;6131147;23;20021;-85
2023/06/04 08:20:58;;;;;;;12.95;2.15;;;;;;;14.61;44.57;100085.66;6130642;23;20392;-89
2023/06/04 08:23:38;;;;;;;10.57;2.20;;;;;;;14.49;40.26;100117.28;6129852;23;20033;-83
2023/06/04 08:26:24;;;;;;;6.38;1.80;;;;;;;14.32;40.57;100085.06;6091959;23;20021;-86
2023/06/04 08:29:06;;;;;;;4.22;1.83;;;;;;;14.61;40.59;100104.91;6092252;23;20051;-81
2023/06/04 08:31:36;;;;;;;11.68;1.83;;;;;;;15.00;41.17;100115.00;6089007;23;20018;-83
2023/06/04 08:34:16;;;;;;;2.67;1.70;;;;;;;15.09;39.13;100118.56;6066463;23;20018;-90
2023/06/04 08:36:46;;;;;;;4.35;1.70;;;;;;;15.03;40.21;100111.59;6019256;23;20022;-81
2023/06/04 08:39:13;;;;;;;2.10;1.67;;;;;;;14.91;39.55;100120.50;6062883;23;20134;-82
2023/06/04 08:41:51;;;;;;;4.40;1.90;;;;;;;14.80;40.67;100116.41;6063373;23;20040;-87
2023/06/04 08:44:18;;;;;;;16.10;2.40;;;;;;;14.75;41.35;100105.56;6087830;23;20014;-85
2023/06/04 08:46:47;;;;;;;6.30;1.83;;;;;;;14.73;39.01;100097.63;6085700;23;20184;-85
2023/06/04 08:49:16;;;;;;;8.20;1.70;;;;;;;14.75;39.00;100111.09;6085531;23;20201;-84
2023/06/04 08:51:42;;;;;;;2.70;2.03;;;;;;;14.85;40.16;100112.72;6042705;23;20026;-84
2023/06/04 08:54:09;;;;;;;4.70;1.90;;;;;;;14.82;39.85;100091.34;6066100;23;20866;-82
2023/06/04 08:56:35;;;;;;;5.70;2.03;;;;;;;14.96;40.54;100125.03;6088658;23;20082;-87
2023/06/04 08:59:03;;;;;;;5.13;1.73;;;;;;;14.90;38.80;100118.06;6088845;23;20395;-89
2023/06/04 09:01:31;;;;;;;6.00;1.73;;;;;;;14.97;39.93;100112.91;6095976;23;20022;-83
2023/06/04 09:03:59;;;;;;;10.68;1.90;;;;;;;15.05;37.64;100101.06;6090485;23;20018;-85
2023/06/04 09:06:29;;;;;;;5.70;2.00;;;;;;;15.34;37.32;100108.69;6118673;23;20018;-88
2023/06/04 09:09:00;;;;;;;4.18;1.67;;;;;;;15.61;37.54;100115.78;6076109;23;20045;-82
2023/06/04 09:11:31;;;;;;;2.72;1.88;;;;;;;15.77;37.01;100110.59;6146634;23;20025;-82
2023/06/04 09:14:01;;;;;;;6.93;2.00;;;;;;;16.02;34.98;100097.84;6147270;23;20017;-81
2023/06/04 09:16:27;;;;;;;8.80;2.13;;;;;;;16.16;36.95;100108.69;6150481;23;20028;-82
2023/06/04 09:18:54;;;;;;;8.02;1.70;;;;;;;15.92;36.70;100090.75;6117793;23;20090;-88
2023/06/04 09:21:21;;;;;;;4.25;1.58;;;;;;;15.80;35.85;100118.19;6144044;23;20047;-82
2023/06/04 09:23:47;;;;;;;7.57;1.95;;;;;;;15.62;36.32;100106.34;6098034;23;20017;-88
2023/06/04 09:26:14;;;;;;;9.60;2.42;;;;;;;15.52;36.87;100129.56;6103141;23;20017;-85
2023/06/04 09:28:42;;;;;;;5.10;1.80;;;;;;;15.41;37.68;100124.72;6118736;23;20355;-88
2023/06/04 09:31:17;;;;;;;6.53;1.98;;;;;;;15.23;38.06;100107.38;6155593;23;20108;-83
2023/06/04 09:33:48;;;;;;;6.60;2.03;;;;;;;15.12;39.30;100108.84;6154942;23;20061;-88
2023/06/04 09:36:16;;;;;;;8.80;2.30;;;;;;;15.05;38.51;100134.13;6155255;23;20024;-90
2023/06/04 09:38:43;;;;;;;;;;;;;;;14.88;39.23;100140.41;6128217;23;20026;-88
2023/06/04 09:41:24;;;;;;;8.85;2.25;;;;;;;14.69;39.28;100123.38;6152767;23;19955;-82
2023/06/04 09:43:50;;;;;;;3.70;1.90;;;;;;;14.79;39.04;100126.63;6150439;23;20022;-90
2023/06/04 09:46:17;;;;;;;8.77;1.88;;;;;;;14.79;38.29;100107.34;6155078;23;20021;-83
2023/06/04 09:48:44;;;;;;;7.63;2.47;;;;;;;14.99;39.29;100140.91;6154008;23;20056;-84
2023/06/04 09:51:12;;;;;;;8.65;2.40;;;;;;;15.01;39.13;100125.69;6156120;23;20113;-87
2023/06/04 09:53:41;;;;;;;7.00;2.42;;;;;;;15.01;38.58;100127.63;6055241;23;20095;-82
2023/06/04 09:56:10;;;;;;;9.07;2.55;;;;;;;15.10;39.13;100122.13;6103077;23;20017;-86
2023/06/04 09:58:38;;;;;;;4.68;1.98;;;;;;;15.20;37.73;100124.56;6127918;23;20017;-88
2023/06/04 10:01:07;;;;;;;4.07;2.00;;;;;;;15.13;40.15;100114.03;6154095;23;20781;-88
2023/06/04 10:03:37;;;;;;;4.82;2.00;;;;;;;15.26;39.58;100135.09;6155149;23;20021;-87
2023/06/04 10:06:05;;;;;;;7.28;2.45;;;;;;;15.36;39.22;100130.38;6127278;23;20023;-91
2023/06/04 10:08:34;;;;;;;4.20;1.95;;;;;;;15.41;37.94;100136.53;6152226;23;20092;-87
2023/06/04 10:11:03;;;;;;;4.50;1.90;;;;;;;15.28;38.10;100110.78;6155218;23;20033;-89
2023/06/04 10:13:31;;;;;;;3.83;2.15;;;;;;;15.41;37.80;100113.69;6086038;23;20021;-87
2023/06/04 10:15:59;;;;;;;12.35;2.70;;;;;;;15.58;38.18;100121.94;6107598;23;20603;-85
2023/06/04 10:18:27;;;;;;;8.48;2.42;;;;;;;15.59;38.36;100122.75;6156906;23;20018;-88
2023/06/04 10:20:55;;;;;;;8.75;2.55;;;;;;;15.76;38.56;100102.63;6129142;23;20084;-83
2023/06/04 10:23:25;;;;;;;6.28;2.17;;;;;;;15.90;40.20;100119.81;6154441;23;20028;-83
2023/06/04 10:25:52;;;;;;;8.27;2.75;;;;;;;15.76;37.36;100110.91;6155692;23;20077;-81
2023/06/04 10:28:21;;;;;;;3.65;1.92;;;;;;;15.77;39.92;100115.28;6083312;23;20471;-82
2023/06/04 10:30:50;;;;;;;6.72;2.15;;;;;;;15.76;37.09;100120.00;6106484;23;20021;-88
2023/06/04 10:33:23;;;;;;;7.90;2.40;;;;;;;15.58;39.97;100080.59;6155420;23;20403;-81
2023/06/04 10:35:51;;;;;;;6.35;2.33;;;;;;;15.68;40.06;100091.31;6156722;23;20017;-82
2023/06/04 10:38:18;;;;;;;11.18;2.83;;;;;;;15.52;38.43;100090.16;6156346;23;20017;-85
2023/06/04 10:40:44;;;;;;;4.95;2.05;;;;;;;15.54;38.57;100104.44;6154283;23;20051;-83
2023/06/04 10:43:12;;;;;;;7.55;2.33;;;;;;;15.41;37.70;100124.72;6152162;23;20632;-88
2023/06/04 10:45:39;;;;;;;4.28;2.03;;;;;;;15.34;35.33;100110.63;6154681;23;20487;-84
2023/06/04 10:48:11;;;;;;;6.35;2.20;;;;;;;15.61;37.50;100090.16;6121203;23;20017;-86
2023/06/04 10:50:52;;;;;;;4.88;2.22;;;;;;;15.89;36.53;100112.66;6079889;23;20022;-86
2023/06/04 10:53:19;;;;;;;4.70;2.00;;;;;;;16.13;36.85;100095.56;6154309;23;20028;-84
2023/06/04 10:55:49;;;;;;;5.20;1.77;;;;;;;16.38;34.78;100107.59;6143709;23;20493;-83
2023/06/04 10:58:16;;;;;;;4.70;2.00;;;;;;;16.67;36.35;100106.78;6153152;23;20021;-82
2023/06/04 11:00:46;;;;;;;6.50;2.10;;;;;;;16.96;35.88;100110.69;6153592;23;20017;-88
2023/06/04 11:03:12;;;;;;;4.97;1.88;;;;;;;16.91;33.65;100086.81;6155657;23;20029;-84
2023/06/04 11:05:43;;;;;;;12.90;2.28;;;;;;;17.04;32.09;100104.28;6106505;23;20021;-84
2023/06/04 11:08:11;;;;;;;3.80;2.10;;;;;;;16.82;34.20;100111.75;6130717;23;20017;-87
2023/06/04 11:10:45;;;;;;;12.82;2.20;;;;;;;16.67;34.36;100106.78;6081415;23;20104;-85
2023/06/04 11:13:11;;;;;;;5.93;2.20;;;;;;;16.48;36.18;100103.66;6153463;23;20048;-90
2023/06/04 11:15:39;;;;;;;11.02;2.33;;;;;;;16.38;35.59;100113.09;6157127;23;20387;-84
2023/06/04 11:18:06;;;;;;;2.75;1.98;;;;;;;16.11;35.88;100122.66;6156039;23;20022;-84
2023/06/04 11:20:34;;;;;;;5.57;2.00;;;;;;;15.94;37.44;100093.19;6132924;23;20020;-91
2023/06/04 11:23:02;;;;;;;20.95;2.65;;;;;;;16.23;37.83;100119.19;6156260;23;20014;-86
2023/06/04 11:25:30;;;;;;;9.93;2.35;;;;;;;16.27;37.28;100120.16;6131601;23;20024;-86
2023/06/04 11:27:58;;;;;;;25.70;2.60;;;;;;;16.14;37.78;100100.72;6105898;23;20025;-90
2023/06/04 11:30:25;;;;;;;13.90;3.00;;;;;;;16.21;36.67;100123.09;6130482;23;20013;-86
2023/06/04 11:33:00;;;;;;;10.02;2.47;;;;;;;16.09;35.03;100120.22;6158748;23;20017;-84
2023/06/04 11:35:28;;;;;;;1.67;1.58;;;;;;;15.99;35.41;100117.81;6157968;23;20100;-88
2023/06/04 11:37:56;;;;;;;5.72;2.47;;;;;;;16.18;35.95;100120.97;6156991;23;20028;-90
2023/06/04 11:40:22;;;;;;;4.50;2.10;;;;;;;16.28;34.16;100114.28;6130340;23;20452;-86
2023/06/04 11:42:52;;;;;;;5.45;2.15;;;;;;;16.50;33.73;100117.94;6106132;23;20788;-85
2023/06/04 11:45:20;;;;;;;5.35;1.90;;;;;;;16.94;35.09;100116.53;6105487;23;20375;-84
2023/06/04 11:47:55;;;;;;;7.18;1.80;;;;;;;17.03;33.60;100125.56;6129133;23;20088;-84
2023/06/04 11:50:31;;;;;;;9.10;2.35;;;;;;;16.70;30.99;100097.03;6130241;23;20061;-84
2023/06/04 11:52:58;;;;;;;5.40;2.10;;;;;;;16.52;32.74;100101.81;6155686;23;20418;-87
2023/06/04 11:55:24;;;;;;;;;;;;;;;16.43;34.08;100118.44;6130641;23;20022;-85